sensor_id;sensor_type;location;lat;lon;timestamp;P1;durP1;ratioP1;P2;durP2;ratioP2
6527;SDS011;64597;42.664;23.256;2023-05-10T00:01:45;5.60;;;2.95;;
6527;SDS011;64597;42.664;23.256;2023-05-10T00:04:16;5.05;;;2.85;;
6527;SDS011;64597;42.664;23.256;2023-05-10T00:06:49;4.45;;;2.58;;
6527;SDS011;64597;42.664;23.256;2023-05-10T00:09:22;4.20;;;2.58;;
6527;SDS011;64597;42.664;23.256;2023-05-10T00:11:52;5.72;;;2.95;;
6527;SDS011;64597;42.664;23.256;2023-05-10T00:14:24;5.43;;;3.13;;
6527;SDS011;64597;42.664;23.256;2023-05-10T00:16:57;3.53;;;2.85;;
6527;SDS011;64597;42.664;23.256;2023-05-10T00:19:27;4.70;;;3.55;;
6527;SDS011;64597;42.664;23.256;2023-05-10T00:22:02;6.90;;;3.60;;
6527;SDS011;64597;42.664;23.256;2023-05-10T00:24:36;4.93;;;3.45;;
6527;SDS011;64597;42.664;23.256;2023-05-10T00:27:15;4.80;;;2.83;;
6527;SDS011;64597;42.664;23.256;2023-05-10T00:29:42;5.63;;;3.50;;
6527;SDS011;64597;42.664;23.256;2023-05-10T00:32:11;5.20;;;3.70;;
6527;SDS011;64597;42.664;23.256;2023-05-10T00:34:43;6.07;;;3.38;;
6527;SDS011;64597;42.664;23.256;2023-05-10T00:37:20;5.70;;;3.88;;
6527;SDS011;64597;42.664;23.256;2023-05-10T00:39:57;5.78;;;3.13;;
6527;SDS011;64597;42.664;23.256;2023-05-10T00:42:30;5.88;;;4.00;;
6527;SDS011;64597;42.664;23.256;2023-05-10T00:45:07;5.32;;;3.72;;
6527;SDS011;64597;42.664;23.256;2023-05-10T00:47:36;4.35;;;3.22;;
6527;SDS011;64597;42.664;23.256;2023-05-10T00:50:07;5.50;;;3.75;;
6527;SDS011;64597;42.664;23.256;2023-05-10T00:52:41;5.45;;;3.60;;
6527;SDS011;64597;42.664;23.256;2023-05-10T00:55:12;4.50;;;3.63;;
6527;SDS011;64597;42.664;23.256;2023-05-10T00:57:44;6.00;;;3.22;;
6527;SDS011;64597;42.664;23.256;2023-05-10T01:00:19;5.05;;;3.58;;
6527;SDS011;64597;42.664;23.256;2023-05-10T01:03:01;4.90;;;3.17;;
6527;SDS011;64597;42.664;23.256;2023-05-10T01:05:37;6.70;;;4.57;;
6527;SDS011;64597;42.664;23.256;2023-05-10T01:08:13;5.22;;;3.50;;
6527;SDS011;64597;42.664;23.256;2023-05-10T01:10:44;5.63;;;3.63;;
6527;SDS011;64597;42.664;23.256;2023-05-10T01:13:18;5.28;;;3.60;;
6527;SDS011;64597;42.664;23.256;2023-05-10T01:15:52;5.70;;;3.97;;
6527;SDS011;64597;42.664;23.256;2023-05-10T01:18:32;4.68;;;3.38;;
6527;SDS011;64597;42.664;23.256;2023-05-10T01:27:20;4.70;;;3.50;;
6527;SDS011;64597;42.664;23.256;2023-05-10T01:36:32;5.57;;;3.90;;
6527;SDS011;64597;42.664;23.256;2023-05-10T01:39:29;5.15;;;3.40;;
6527;SDS011;64597;42.664;23.256;2023-05-10T01:42:14;5.88;;;3.88;;
6527;SDS011;64597;42.664;23.256;2023-05-10T01:44:58;4.32;;;3.30;;
6527;SDS011;64597;42.664;23.256;2023-05-10T01:48:02;4.22;;;3.28;;
6527;SDS011;64597;42.664;23.256;2023-05-10T01:50:34;4.82;;;3.17;;
6527;SDS011;64597;42.664;23.256;2023-05-10T01:53:10;6.03;;;3.20;;
6527;SDS011;64597;42.664;23.256;2023-05-10T01:55:49;6.85;;;3.33;;
6527;SDS011;64597;42.664;23.256;2023-05-10T01:58:29;5.63;;;3.38;;
6527;SDS011;64597;42.664;23.256;2023-05-10T02:01:09;6.05;;;3.22;;
6527;SDS011;64597;42.664;23.256;2023-05-10T02:03:43;4.75;;;2.80;;
6527;SDS011;64597;42.664;23.256;2023-05-10T02:06:18;4.03;;;2.83;;
6527;SDS011;64597;42.664;23.256;2023-05-10T02:08:56;4.20;;;2.60;;
6527;SDS011;64597;42.664;23.256;2023-05-10T02:11:34;5.75;;;3.25;;
6527;SDS011;64597;42.664;23.256;2023-05-10T02:14:14;5.28;;;3.55;;
6527;SDS011;64597;42.664;23.256;2023-05-10T02:16:49;4.07;;;2.88;;
6527;SDS011;64597;42.664;23.256;2023-05-10T02:19:27;3.25;;;2.63;;
6527;SDS011;64597;42.664;23.256;2023-05-10T02:22:02;7.10;;;2.90;;
6527;SDS011;64597;42.664;23.256;2023-05-10T02:24:42;3.35;;;2.67;;
6527;SDS011;64597;42.664;23.256;2023-05-10T02:27:25;5.00;;;3.10;;
6527;SDS011;64597;42.664;23.256;2023-05-10T02:30:01;3.65;;;2.88;;
6527;SDS011;64597;42.664;23.256;2023-05-10T02:32:53;4.93;;;2.95;;
6527;SDS011;64597;42.664;23.256;2023-05-10T02:35:28;5.55;;;2.60;;
6527;SDS011;64597;42.664;23.256;2023-05-10T02:38:01;3.75;;;2.88;;
6527;SDS011;64597;42.664;23.256;2023-05-10T02:40:39;5.90;;;2.75;;
6527;SDS011;64597;42.664;23.256;2023-05-10T02:43:21;5.43;;;3.33;;
6527;SDS011;64597;42.664;23.256;2023-05-10T02:45:58;4.88;;;2.95;;
6527;SDS011;64597;42.664;23.256;2023-05-10T02:48:29;4.07;;;2.60;;
6527;SDS011;64597;42.664;23.256;2023-05-10T02:51:00;5.05;;;2.80;;
6527;SDS011;64597;42.664;23.256;2023-05-10T02:53:38;4.45;;;2.50;;
6527;SDS011;64597;42.664;23.256;2023-05-10T02:56:17;3.97;;;2.90;;
6527;SDS011;64597;42.664;23.256;2023-05-10T02:59:03;4.03;;;2.80;;
6527;SDS011;64597;42.664;23.256;2023-05-10T03:01:39;5.22;;;2.92;;
6527;SDS011;64597;42.664;23.256;2023-05-10T03:04:14;7.18;;;2.90;;
6527;SDS011;64597;42.664;23.256;2023-05-10T03:06:44;5.28;;;2.58;;
6527;SDS011;64597;42.664;23.256;2023-05-10T03:09:15;4.50;;;3.13;;
6527;SDS011;64597;42.664;23.256;2023-05-10T03:15:07;5.30;;;3.72;;
6527;SDS011;64597;42.664;23.256;2023-05-10T03:17:52;5.15;;;3.05;;
6527;SDS011;64597;42.664;23.256;2023-05-10T03:20:44;3.88;;;2.50;;
6527;SDS011;64597;42.664;23.256;2023-05-10T03:23:30;5.35;;;3.20;;
6527;SDS011;64597;42.664;23.256;2023-05-10T03:26:15;4.88;;;2.97;;
6527;SDS011;64597;42.664;23.256;2023-05-10T03:28:53;4.82;;;2.97;;
6527;SDS011;64597;42.664;23.256;2023-05-10T03:31:25;7.82;;;3.13;;
6527;SDS011;64597;42.664;23.256;2023-05-10T03:33:55;5.38;;;3.05;;
6527;SDS011;64597;42.664;23.256;2023-05-10T03:36:24;5.97;;;2.60;;
6527;SDS011;64597;42.664;23.256;2023-05-10T03:38:53;3.97;;;2.72;;
6527;SDS011;64597;42.664;23.256;2023-05-10T03:41:25;5.13;;;3.17;;
6527;SDS011;64597;42.664;23.256;2023-05-10T03:43:55;4.43;;;3.40;;
6527;SDS011;64597;42.664;23.256;2023-05-10T03:46:28;6.25;;;3.33;;
6527;SDS011;64597;42.664;23.256;2023-05-10T03:48:58;5.22;;;3.40;;
6527;SDS011;64597;42.664;23.256;2023-05-10T03:51:30;5.28;;;2.83;;
6527;SDS011;64597;42.664;23.256;2023-05-10T03:54:07;4.20;;;2.97;;
6527;SDS011;64597;42.664;23.256;2023-05-10T03:56:37;9.35;;;3.30;;
6527;SDS011;64597;42.664;23.256;2023-05-10T03:59:09;5.15;;;3.15;;
6527;SDS011;64597;42.664;23.256;2023-05-10T04:01:40;4.15;;;3.10;;
6527;SDS011;64597;42.664;23.256;2023-05-10T04:04:10;3.50;;;2.70;;
6527;SDS011;64597;42.664;23.256;2023-05-10T04:06:42;6.57;;;3.15;;
6527;SDS011;64597;42.664;23.256;2023-05-10T04:09:12;5.40;;;2.75;;
6527;SDS011;64597;42.664;23.256;2023-05-10T04:11:39;3.92;;;2.50;;
6527;SDS011;64597;42.664;23.256;2023-05-10T04:14:11;8.48;;;3.70;;
6527;SDS011;64597;42.664;23.256;2023-05-10T04:16:39;4.95;;;3.17;;
6527;SDS011;64597;42.664;23.256;2023-05-10T04:19:12;5.00;;;3.38;;
6527;SDS011;64597;42.664;23.256;2023-05-10T04:21:41;4.15;;;2.95;;
6527;SDS011;64597;42.664;23.256;2023-05-10T04:24:10;4.50;;;3.38;;
6527;SDS011;64597;42.664;23.256;2023-05-10T04:26:44;5.00;;;2.88;;
6527;SDS011;64597;42.664;23.256;2023-05-10T04:29:17;5.13;;;3.13;;
6527;SDS011;64597;42.664;23.256;2023-05-10T04:31:47;4.82;;;2.70;;
6527;SDS011;64597;42.664;23.256;2023-05-10T04:34:19;6.13;;;3.58;;
6527;SDS011;64597;42.664;23.256;2023-05-10T04:39:27;5.35;;;3.03;;
6527;SDS011;64597;42.664;23.256;2023-05-10T04:41:56;3.83;;;2.78;;
6527;SDS011;64597;42.664;23.256;2023-05-10T04:44:27;5.05;;;3.13;;
6527;SDS011;64597;42.664;23.256;2023-05-10T04:46:59;4.38;;;2.97;;
6527;SDS011;64597;42.664;23.256;2023-05-10T04:49:40;4.70;;;3.17;;
6527;SDS011;64597;42.664;23.256;2023-05-10T04:52:14;5.60;;;3.28;;
6527;SDS011;64597;42.664;23.256;2023-05-10T04:54:52;4.88;;;3.42;;
6527;SDS011;64597;42.664;23.256;2023-05-10T04:57:25;5.85;;;3.25;;
6527;SDS011;64597;42.664;23.256;2023-05-10T04:59:54;6.47;;;3.70;;
6527;SDS011;64597;42.664;23.256;2023-05-10T05:02:20;4.68;;;2.88;;
6527;SDS011;64597;42.664;23.256;2023-05-10T05:04:49;5.15;;;3.80;;
6527;SDS011;64597;42.664;23.256;2023-05-10T05:07:18;3.63;;;2.90;;
6527;SDS011;64597;42.664;23.256;2023-05-10T05:09:48;6.72;;;3.10;;
6527;SDS011;64597;42.664;23.256;2023-05-10T05:12:15;7.13;;;3.78;;
6527;SDS011;64597;42.664;23.256;2023-05-10T05:14:44;5.22;;;3.05;;
6527;SDS011;64597;42.664;23.256;2023-05-10T05:17:20;5.45;;;3.45;;
6527;SDS011;64597;42.664;23.256;2023-05-10T05:20:04;6.22;;;3.80;;
6527;SDS011;64597;42.664;23.256;2023-05-10T05:22:47;6.68;;;3.85;;
6527;SDS011;64597;42.664;23.256;2023-05-10T05:25:19;6.80;;;3.65;;
6527;SDS011;64597;42.664;23.256;2023-05-10T05:27:50;4.70;;;3.33;;
6527;SDS011;64597;42.664;23.256;2023-05-10T05:30:42;7.57;;;3.83;;
6527;SDS011;64597;42.664;23.256;2023-05-10T05:33:26;4.18;;;3.10;;
6527;SDS011;64597;42.664;23.256;2023-05-10T05:38:50;6.10;;;3.90;;
6527;SDS011;64597;42.664;23.256;2023-05-10T05:41:25;5.50;;;3.55;;
6527;SDS011;64597;42.664;23.256;2023-05-10T05:44:03;7.38;;;3.33;;
6527;SDS011;64597;42.664;23.256;2023-05-10T05:46:40;7.35;;;4.05;;
6527;SDS011;64597;42.664;23.256;2023-05-10T05:49:21;8.88;;;4.25;;
6527;SDS011;64597;42.664;23.256;2023-05-10T05:52:00;7.80;;;4.45;;
6527;SDS011;64597;42.664;23.256;2023-05-10T05:54:42;6.70;;;4.15;;
6527;SDS011;64597;42.664;23.256;2023-05-10T05:57:29;7.68;;;4.15;;
6527;SDS011;64597;42.664;23.256;2023-05-10T06:00:06;7.95;;;3.97;;
6527;SDS011;64597;42.664;23.256;2023-05-10T06:02:39;8.40;;;4.55;;
6527;SDS011;64597;42.664;23.256;2023-05-10T06:05:09;6.55;;;3.53;;
6527;SDS011;64597;42.664;23.256;2023-05-10T06:07:42;6.50;;;4.13;;
6527;SDS011;64597;42.664;23.256;2023-05-10T06:10:16;6.93;;;4.00;;
6527;SDS011;64597;42.664;23.256;2023-05-10T06:12:59;6.57;;;4.50;;
6527;SDS011;64597;42.664;23.256;2023-05-10T06:15:34;7.82;;;3.92;;
6527;SDS011;64597;42.664;23.256;2023-05-10T06:18:12;9.70;;;4.88;;
6527;SDS011;64597;42.664;23.256;2023-05-10T06:20:42;9.82;;;4.97;;
6527;SDS011;64597;42.664;23.256;2023-05-10T06:23:12;7.57;;;4.90;;
6527;SDS011;64597;42.664;23.256;2023-05-10T06:25:51;8.48;;;5.00;;
6527;SDS011;64597;42.664;23.256;2023-05-10T06:28:25;8.40;;;4.75;;
6527;SDS011;64597;42.664;23.256;2023-05-10T06:30:58;7.80;;;4.53;;
6527;SDS011;64597;42.664;23.256;2023-05-10T06:33:28;7.47;;;4.50;;
6527;SDS011;64597;42.664;23.256;2023-05-10T06:36:03;8.15;;;4.72;;
6527;SDS011;64597;42.664;23.256;2023-05-10T06:38:34;9.43;;;5.20;;
6527;SDS011;64597;42.664;23.256;2023-05-10T06:41:09;8.13;;;5.15;;
6527;SDS011;64597;42.664;23.256;2023-05-10T06:43:41;11.50;;;5.85;;
6527;SDS011;64597;42.664;23.256;2023-05-10T06:46:16;10.25;;;5.43;;
6527;SDS011;64597;42.664;23.256;2023-05-10T06:48:46;8.68;;;4.72;;
6527;SDS011;64597;42.664;23.256;2023-05-10T06:51:21;12.10;;;5.75;;
6527;SDS011;64597;42.664;23.256;2023-05-10T06:53:55;8.18;;;5.28;;
6527;SDS011;64597;42.664;23.256;2023-05-10T06:56:24;9.07;;;4.70;;
6527;SDS011;64597;42.664;23.256;2023-05-10T06:58:52;6.40;;;4.10;;
6527;SDS011;64597;42.664;23.256;2023-05-10T07:01:25;7.88;;;5.20;;
6527;SDS011;64597;42.664;23.256;2023-05-10T07:03:55;8.90;;;5.75;;
6527;SDS011;64597;42.664;23.256;2023-05-10T07:06:25;7.32;;;4.72;;
6527;SDS011;64597;42.664;23.256;2023-05-10T07:08:57;9.48;;;5.18;;
6527;SDS011;64597;42.664;23.256;2023-05-10T07:11:35;6.85;;;4.75;;
6527;SDS011;64597;42.664;23.256;2023-05-10T07:14:03;7.03;;;4.40;;
6527;SDS011;64597;42.664;23.256;2023-05-10T07:16:32;7.78;;;4.30;;
6527;SDS011;64597;42.664;23.256;2023-05-10T07:19:01;9.25;;;4.30;;
6527;SDS011;64597;42.664;23.256;2023-05-10T07:21:30;6.72;;;3.95;;
6527;SDS011;64597;42.664;23.256;2023-05-10T07:23:57;8.70;;;5.32;;
6527;SDS011;64597;42.664;23.256;2023-05-10T07:26:29;7.40;;;4.57;;
6527;SDS011;64597;42.664;23.256;2023-05-10T07:29:01;7.18;;;4.22;;
6527;SDS011;64597;42.664;23.256;2023-05-10T07:31:36;8.68;;;4.90;;
6527;SDS011;64597;42.664;23.256;2023-05-10T07:34:11;10.82;;;4.85;;
6527;SDS011;64597;42.664;23.256;2023-05-10T07:36:39;8.38;;;4.75;;
6527;SDS011;64597;42.664;23.256;2023-05-10T07:39:15;8.25;;;4.57;;
6527;SDS011;64597;42.664;23.256;2023-05-10T07:41:49;6.13;;;4.55;;
6527;SDS011;64597;42.664;23.256;2023-05-10T07:44:24;8.48;;;5.30;;
6527;SDS011;64597;42.664;23.256;2023-05-10T07:47:03;8.38;;;4.55;;
6527;SDS011;64597;42.664;23.256;2023-05-10T07:49:31;8.52;;;5.07;;
6527;SDS011;64597;42.664;23.256;2023-05-10T07:52:03;11.63;;;5.30;;
6527;SDS011;64597;42.664;23.256;2023-05-10T07:54:30;9.73;;;5.20;;
6527;SDS011;64597;42.664;23.256;2023-05-10T07:57:02;8.43;;;5.38;;
6527;SDS011;64597;42.664;23.256;2023-05-10T07:59:43;7.25;;;4.80;;
6527;SDS011;64597;42.664;23.256;2023-05-10T08:02:22;8.40;;;4.97;;
6527;SDS011;64597;42.664;23.256;2023-05-10T08:04:51;9.13;;;4.93;;
6527;SDS011;64597;42.664;23.256;2023-05-10T08:07:27;8.52;;;4.97;;
6527;SDS011;64597;42.664;23.256;2023-05-10T08:10:01;9.23;;;5.07;;
6527;SDS011;64597;42.664;23.256;2023-05-10T08:12:31;9.27;;;5.28;;
6527;SDS011;64597;42.664;23.256;2023-05-10T08:15:02;9.45;;;5.20;;
6527;SDS011;64597;42.664;23.256;2023-05-10T08:17:37;9.57;;;4.45;;
6527;SDS011;64597;42.664;23.256;2023-05-10T08:20:07;13.40;;;5.75;;
6527;SDS011;64597;42.664;23.256;2023-05-10T08:22:43;7.53;;;5.25;;
6527;SDS011;64597;42.664;23.256;2023-05-10T08:25:19;9.90;;;4.40;;
6527;SDS011;64597;42.664;23.256;2023-05-10T08:27:58;9.82;;;4.82;;
6527;SDS011;64597;42.664;23.256;2023-05-10T08:30:32;9.05;;;5.15;;
6527;SDS011;64597;42.664;23.256;2023-05-10T08:33:04;8.43;;;5.07;;
6527;SDS011;64597;42.664;23.256;2023-05-10T08:35:34;7.60;;;5.25;;
6527;SDS011;64597;42.664;23.256;2023-05-10T08:38:04;7.43;;;5.20;;
6527;SDS011;64597;42.664;23.256;2023-05-10T08:40:36;7.22;;;4.90;;
6527;SDS011;64597;42.664;23.256;2023-05-10T08:43:10;9.40;;;5.68;;
6527;SDS011;64597;42.664;23.256;2023-05-10T08:45:44;7.60;;;5.45;;
6527;SDS011;64597;42.664;23.256;2023-05-10T08:48:20;6.60;;;4.85;;
6527;SDS011;64597;42.664;23.256;2023-05-10T08:50:53;8.80;;;5.05;;
6527;SDS011;64597;42.664;23.256;2023-05-10T08:53:29;8.48;;;5.40;;
6527;SDS011;64597;42.664;23.256;2023-05-10T08:56:04;9.82;;;5.60;;
6527;SDS011;64597;42.664;23.256;2023-05-10T08:58:36;6.70;;;3.97;;
6527;SDS011;64597;42.664;23.256;2023-05-10T09:01:12;7.82;;;4.93;;
6527;SDS011;64597;42.664;23.256;2023-05-10T09:03:46;11.40;;;5.82;;
6527;SDS011;64597;42.664;23.256;2023-05-10T09:06:20;10.05;;;6.35;;
6527;SDS011;64597;42.664;23.256;2023-05-10T09:08:50;7.60;;;5.18;;
6527;SDS011;64597;42.664;23.256;2023-05-10T09:11:24;8.57;;;5.90;;
6527;SDS011;64597;42.664;23.256;2023-05-10T09:13:55;7.75;;;5.13;;
6527;SDS011;64597;42.664;23.256;2023-05-10T09:16:28;8.88;;;6.68;;
6527;SDS011;64597;42.664;23.256;2023-05-10T09:18:59;9.02;;;6.13;;
6527;SDS011;64597;42.664;23.256;2023-05-10T09:21:27;9.95;;;5.97;;
6527;SDS011;64597;42.664;23.256;2023-05-10T09:23:57;10.15;;;5.85;;
6527;SDS011;64597;42.664;23.256;2023-05-10T09:26:28;8.15;;;5.57;;
6527;SDS011;64597;42.664;23.256;2023-05-10T09:28:57;9.27;;;5.65;;
6527;SDS011;64597;42.664;23.256;2023-05-10T09:31:43;10.18;;;6.35;;
6527;SDS011;64597;42.664;23.256;2023-05-10T09:34:17;10.65;;;6.82;;
6527;SDS011;64597;42.664;23.256;2023-05-10T09:36:56;10.55;;;5.68;;
6527;SDS011;64597;42.664;23.256;2023-05-10T09:42:03;8.18;;;5.43;;
6527;SDS011;64597;42.664;23.256;2023-05-10T09:44:32;9.10;;;5.68;;
6527;SDS011;64597;42.664;23.256;2023-05-10T09:47:04;7.22;;;4.82;;
6527;SDS011;64597;42.664;23.256;2023-05-10T09:49:32;9.70;;;4.97;;
6527;SDS011;64597;42.664;23.256;2023-05-10T09:52:05;7.70;;;5.18;;
6527;SDS011;64597;42.664;23.256;2023-05-10T09:54:34;8.60;;;5.30;;
6527;SDS011;64597;42.664;23.256;2023-05-10T09:57:01;7.75;;;5.60;;
6527;SDS011;64597;42.664;23.256;2023-05-10T09:59:30;10.23;;;5.95;;
6527;SDS011;64597;42.664;23.256;2023-05-10T10:02:00;8.45;;;6.07;;
6527;SDS011;64597;42.664;23.256;2023-05-10T10:04:28;10.13;;;5.50;;
6527;SDS011;64597;42.664;23.256;2023-05-10T10:07:01;7.97;;;5.70;;
6527;SDS011;64597;42.664;23.256;2023-05-10T10:09:28;7.38;;;4.65;;
6527;SDS011;64597;42.664;23.256;2023-05-10T10:11:54;6.90;;;5.30;;
6527;SDS011;64597;42.664;23.256;2023-05-10T10:14:21;8.95;;;5.88;;
6527;SDS011;64597;42.664;23.256;2023-05-10T10:16:50;9.05;;;6.32;;
6527;SDS011;64597;42.664;23.256;2023-05-10T10:19:17;7.68;;;5.63;;
6527;SDS011;64597;42.664;23.256;2023-05-10T10:21:44;8.52;;;6.00;;
6527;SDS011;64597;42.664;23.256;2023-05-10T10:24:09;11.35;;;6.60;;
6527;SDS011;64597;42.664;23.256;2023-05-10T10:26:35;8.32;;;6.15;;
6527;SDS011;64597;42.664;23.256;2023-05-10T10:31:49;9.82;;;6.05;;
6527;SDS011;64597;42.664;23.256;2023-05-10T10:34:34;8.68;;;5.50;;
6527;SDS011;64597;42.664;23.256;2023-05-10T10:37:04;6.50;;;5.20;;
6527;SDS011;64597;42.664;23.256;2023-05-10T10:39:30;10.95;;;7.50;;
6527;SDS011;64597;42.664;23.256;2023-05-10T10:41:56;8.57;;;6.05;;
6527;SDS011;64597;42.664;23.256;2023-05-10T10:50:07;7.30;;;5.47;;
6527;SDS011;64597;42.664;23.256;2023-05-10T10:52:39;8.60;;;5.82;;
6527;SDS011;64597;42.664;23.256;2023-05-10T10:55:10;6.60;;;5.07;;
6527;SDS011;64597;42.664;23.256;2023-05-10T11:00:24;8.88;;;5.05;;
6527;SDS011;64597;42.664;23.256;2023-05-10T11:03:00;9.35;;;5.53;;
6527;SDS011;64597;42.664;23.256;2023-05-10T11:08:09;6.63;;;4.63;;
6527;SDS011;64597;42.664;23.256;2023-05-10T11:10:51;8.82;;;5.00;;
6527;SDS011;64597;42.664;23.256;2023-05-10T11:13:30;7.20;;;5.20;;
6527;SDS011;64597;42.664;23.256;2023-05-10T11:16:13;7.63;;;5.07;;
6527;SDS011;64597;42.664;23.256;2023-05-10T11:19:04;7.72;;;5.07;;
6527;SDS011;64597;42.664;23.256;2023-05-10T11:21:34;7.57;;;5.30;;
6527;SDS011;64597;42.664;23.256;2023-05-10T11:24:15;7.03;;;4.40;;
6527;SDS011;64597;42.664;23.256;2023-05-10T11:26:52;6.93;;;4.85;;
6527;SDS011;64597;42.664;23.256;2023-05-10T11:29:19;5.22;;;4.25;;
6527;SDS011;64597;42.664;23.256;2023-05-10T11:31:47;8.02;;;4.90;;
6527;SDS011;64597;42.664;23.256;2023-05-10T11:34:27;7.70;;;4.65;;
6527;SDS011;64597;42.664;23.256;2023-05-10T11:37:00;7.47;;;5.32;;
6527;SDS011;64597;42.664;23.256;2023-05-10T11:39:27;7.05;;;5.18;;
6527;SDS011;64597;42.664;23.256;2023-05-10T11:41:54;7.45;;;5.50;;
6527;SDS011;64597;42.664;23.256;2023-05-10T11:44:20;7.18;;;5.20;;
6527;SDS011;64597;42.664;23.256;2023-05-10T11:46:46;8.95;;;5.70;;
6527;SDS011;64597;42.664;23.256;2023-05-10T11:49:13;8.77;;;5.40;;
6527;SDS011;64597;42.664;23.256;2023-05-10T11:51:39;9.68;;;5.43;;
6527;SDS011;64597;42.664;23.256;2023-05-10T11:54:08;14.18;;;6.40;;
6527;SDS011;64597;42.664;23.256;2023-05-10T11:56:36;7.80;;;5.47;;
6527;SDS011;64597;42.664;23.256;2023-05-10T11:59:03;9.60;;;6.07;;
6527;SDS011;64597;42.664;23.256;2023-05-10T12:01:30;8.85;;;5.63;;
6527;SDS011;64597;42.664;23.256;2023-05-10T12:03:57;10.52;;;6.50;;
6527;SDS011;64597;42.664;23.256;2023-05-10T12:06:30;7.60;;;5.38;;
6527;SDS011;64597;42.664;23.256;2023-05-10T12:08:57;10.43;;;5.90;;
6527;SDS011;64597;42.664;23.256;2023-05-10T12:11:25;7.65;;;5.03;;
6527;SDS011;64597;42.664;23.256;2023-05-10T12:13:53;9.05;;;5.15;;
6527;SDS011;64597;42.664;23.256;2023-05-10T12:16:21;8.50;;;5.55;;
6527;SDS011;64597;42.664;23.256;2023-05-10T12:18:52;8.02;;;5.65;;
6527;SDS011;64597;42.664;23.256;2023-05-10T12:21:24;10.00;;;6.15;;
6527;SDS011;64597;42.664;23.256;2023-05-10T12:23:51;10.13;;;5.97;;
6527;SDS011;64597;42.664;23.256;2023-05-10T12:26:23;8.77;;;6.22;;
6527;SDS011;64597;42.664;23.256;2023-05-10T12:28:52;9.45;;;5.43;;
6527;SDS011;64597;42.664;23.256;2023-05-10T12:31:19;9.23;;;5.45;;
6527;SDS011;64597;42.664;23.256;2023-05-10T12:33:46;11.32;;;5.93;;
6527;SDS011;64597;42.664;23.256;2023-05-10T12:36:15;8.35;;;4.88;;
6527;SDS011;64597;42.664;23.256;2023-05-10T12:38:43;10.90;;;5.75;;
6527;SDS011;64597;42.664;23.256;2023-05-10T12:41:14;8.32;;;6.05;;
6527;SDS011;64597;42.664;23.256;2023-05-10T12:43:42;12.18;;;6.20;;
6527;SDS011;64597;42.664;23.256;2023-05-10T12:46:09;9.13;;;6.45;;
6527;SDS011;64597;42.664;23.256;2023-05-10T12:48:37;10.23;;;5.63;;
6527;SDS011;64597;42.664;23.256;2023-05-10T12:51:04;7.45;;;5.50;;
6527;SDS011;64597;42.664;23.256;2023-05-10T12:53:34;8.77;;;5.68;;
6527;SDS011;64597;42.664;23.256;2023-05-10T12:56:01;9.05;;;5.22;;
6527;SDS011;64597;42.664;23.256;2023-05-10T12:58:27;8.85;;;5.70;;
6527;SDS011;64597;42.664;23.256;2023-05-10T13:00:53;7.78;;;5.55;;
6527;SDS011;64597;42.664;23.256;2023-05-10T13:03:19;9.95;;;6.47;;
6527;SDS011;64597;42.664;23.256;2023-05-10T13:05:45;9.65;;;6.35;;
6527;SDS011;64597;42.664;23.256;2023-05-10T13:08:10;10.32;;;5.03;;
6527;SDS011;64597;42.664;23.256;2023-05-10T13:10:36;10.98;;;6.07;;
6527;SDS011;64597;42.664;23.256;2023-05-10T13:13:02;13.50;;;6.22;;
6527;SDS011;64597;42.664;23.256;2023-05-10T13:15:28;8.30;;;5.55;;
6527;SDS011;64597;42.664;23.256;2023-05-10T13:17:54;8.05;;;5.25;;
6527;SDS011;64597;42.664;23.256;2023-05-10T13:20:25;7.50;;;5.93;;
6527;SDS011;64597;42.664;23.256;2023-05-10T13:22:54;7.95;;;5.00;;
6527;SDS011;64597;42.664;23.256;2023-05-10T13:25:21;11.25;;;5.85;;
6527;SDS011;64597;42.664;23.256;2023-05-10T13:27:50;7.85;;;5.43;;
6527;SDS011;64597;42.664;23.256;2023-05-10T13:30:17;8.73;;;5.63;;
6527;SDS011;64597;42.664;23.256;2023-05-10T13:32:45;8.27;;;5.70;;
6527;SDS011;64597;42.664;23.256;2023-05-10T13:35:11;8.02;;;5.43;;
6527;SDS011;64597;42.664;23.256;2023-05-10T13:40:06;7.78;;;5.60;;
6527;SDS011;64597;42.664;23.256;2023-05-10T13:42:34;9.40;;;5.55;;
6527;SDS011;64597;42.664;23.256;2023-05-10T13:45:03;10.73;;;5.93;;
6527;SDS011;64597;42.664;23.256;2023-05-10T13:47:31;8.25;;;5.65;;
6527;SDS011;64597;42.664;23.256;2023-05-10T13:49:58;8.70;;;4.88;;
6527;SDS011;64597;42.664;23.256;2023-05-10T13:52:24;10.40;;;5.47;;
6527;SDS011;64597;42.664;23.256;2023-05-10T13:54:52;7.97;;;4.80;;
6527;SDS011;64597;42.664;23.256;2023-05-10T13:57:20;11.60;;;5.65;;
6527;SDS011;64597;42.664;23.256;2023-05-10T13:59:48;8.93;;;5.15;;
6527;SDS011;64597;42.664;23.256;2023-05-10T14:02:16;6.78;;;4.68;;
6527;SDS011;64597;42.664;23.256;2023-05-10T14:04:43;8.25;;;4.72;;
6527;SDS011;64597;42.664;23.256;2023-05-10T14:07:10;8.80;;;5.70;;
6527;SDS011;64597;42.664;23.256;2023-05-10T14:09:37;10.10;;;5.75;;
6527;SDS011;64597;42.664;23.256;2023-05-10T14:14:32;10.13;;;5.22;;
6527;SDS011;64597;42.664;23.256;2023-05-10T14:17:02;7.30;;;4.85;;
6527;SDS011;64597;42.664;23.256;2023-05-10T14:19:31;8.82;;;5.63;;
6527;SDS011;64597;42.664;23.256;2023-05-10T14:22:01;10.05;;;5.60;;
6527;SDS011;64597;42.664;23.256;2023-05-10T14:24:31;9.35;;;5.97;;
6527;SDS011;64597;42.664;23.256;2023-05-10T14:27:06;7.57;;;5.13;;
6527;SDS011;64597;42.664;23.256;2023-05-10T14:29:37;7.90;;;5.25;;
6527;SDS011;64597;42.664;23.256;2023-05-10T14:32:05;8.18;;;5.07;;
6527;SDS011;64597;42.664;23.256;2023-05-10T14:34:31;7.65;;;4.95;;
6527;SDS011;64597;42.664;23.256;2023-05-10T14:37:00;8.88;;;4.75;;
6527;SDS011;64597;42.664;23.256;2023-05-10T14:39:28;9.48;;;5.57;;
6527;SDS011;64597;42.664;23.256;2023-05-10T14:41:57;9.18;;;5.25;;
6527;SDS011;64597;42.664;23.256;2023-05-10T14:44:25;8.10;;;4.75;;
6527;SDS011;64597;42.664;23.256;2023-05-10T14:46:51;7.72;;;5.35;;
6527;SDS011;64597;42.664;23.256;2023-05-10T14:49:18;9.95;;;5.65;;
6527;SDS011;64597;42.664;23.256;2023-05-10T14:51:49;9.65;;;5.82;;
6527;SDS011;64597;42.664;23.256;2023-05-10T14:54:17;6.40;;;4.80;;
6527;SDS011;64597;42.664;23.256;2023-05-10T14:56:44;8.73;;;5.28;;
6527;SDS011;64597;42.664;23.256;2023-05-10T14:59:18;8.75;;;5.78;;
6527;SDS011;64597;42.664;23.256;2023-05-10T15:01:50;9.32;;;5.75;;
6527;SDS011;64597;42.664;23.256;2023-05-10T15:04:22;9.52;;;6.47;;
6527;SDS011;64597;42.664;23.256;2023-05-10T15:06:52;8.63;;;4.97;;
6527;SDS011;64597;42.664;23.256;2023-05-10T15:09:26;9.85;;;5.47;;
6527;SDS011;64597;42.664;23.256;2023-05-10T15:11:55;7.38;;;5.57;;
6527;SDS011;64597;42.664;23.256;2023-05-10T15:14:24;10.40;;;6.07;;
6527;SDS011;64597;42.664;23.256;2023-05-10T15:16:55;7.15;;;5.00;;
6527;SDS011;64597;42.664;23.256;2023-05-10T15:19:31;9.00;;;5.00;;
6527;SDS011;64597;42.664;23.256;2023-05-10T15:22:06;7.45;;;5.00;;
6527;SDS011;64597;42.664;23.256;2023-05-10T15:24:37;7.00;;;4.35;;
6527;SDS011;64597;42.664;23.256;2023-05-10T15:27:08;9.52;;;5.30;;
6527;SDS011;64597;42.664;23.256;2023-05-10T15:29:39;7.88;;;4.95;;
6527;SDS011;64597;42.664;23.256;2023-05-10T15:32:09;7.65;;;4.82;;
6527;SDS011;64597;42.664;23.256;2023-05-10T15:34:40;8.25;;;4.95;;
6527;SDS011;64597;42.664;23.256;2023-05-10T15:37:11;7.82;;;4.53;;
6527;SDS011;64597;42.664;23.256;2023-05-10T15:39:40;10.65;;;4.82;;
6527;SDS011;64597;42.664;23.256;2023-05-10T15:44:37;7.30;;;4.90;;
6527;SDS011;64597;42.664;23.256;2023-05-10T15:47:07;10.57;;;4.85;;
6527;SDS011;64597;42.664;23.256;2023-05-10T15:49:35;8.27;;;5.18;;
6527;SDS011;64597;42.664;23.256;2023-05-10T15:52:06;6.85;;;4.93;;
6527;SDS011;64597;42.664;23.256;2023-05-10T15:54:37;7.82;;;5.05;;
6527;SDS011;64597;42.664;23.256;2023-05-10T15:57:05;9.68;;;5.85;;
6527;SDS011;64597;42.664;23.256;2023-05-10T15:59:40;8.57;;;5.47;;
6527;SDS011;64597;42.664;23.256;2023-05-10T16:02:13;10.57;;;5.20;;